createdAt,value
2019-03-11T00:01:26.289Z,7.70
2019-03-11T00:03:55.140Z,7.70
2019-03-11T00:06:26.624Z,7.60
2019-03-11T00:08:55.323Z,7.60
2019-03-11T00:11:24.106Z,7.60
2019-03-11T00:13:52.909Z,7.60
2019-03-11T00:16:21.704Z,7.50
2019-03-11T00:18:50.532Z,7.50
2019-03-11T00:21:19.245Z,7.50
2019-03-11T00:23:48.093Z,7.40
2019-03-11T00:26:16.821Z,7.40
2019-03-11T00:28:45.597Z,7.40
2019-03-11T00:31:14.529Z,7.40
2019-03-11T00:33:43.301Z,7.40
2019-03-11T00:36:12.041Z,7.40
2019-03-11T00:38:40.746Z,7.40
2019-03-11T00:41:09.477Z,7.30
2019-03-11T00:43:38.438Z,7.30
2019-03-11T00:46:07.197Z,7.30
2019-03-11T00:48:35.912Z,7.30
2019-03-11T00:51:04.616Z,7.30
2019-03-11T00:53:33.385Z,7.30
2019-03-11T00:56:02.254Z,7.30
2019-03-11T00:58:31.413Z,7.30
2019-03-11T01:01:00.538Z,7.30
2019-03-11T01:03:29.302Z,7.30
2019-03-11T01:05:58.106Z,7.30
2019-03-11T01:08:29.049Z,7.30
2019-03-11T01:10:57.293Z,7.30
2019-03-11T01:13:26.133Z,7.30
2019-03-11T01:15:54.835Z,7.30
2019-03-11T01:18:23.537Z,7.30
2019-03-11T01:20:52.301Z,7.30
2019-03-11T01:23:21.053Z,7.30
2019-03-11T01:25:49.833Z,7.30
2019-03-11T01:28:18.533Z,7.20
2019-03-11T01:30:47.451Z,7.20
2019-03-11T01:33:16.473Z,7.20
2019-03-11T01:35:45.178Z,7.20
2019-03-11T01:38:13.922Z,7.20
2019-03-11T01:40:42.734Z,7.20
2019-03-11T01:43:13.503Z,7.20
2019-03-11T01:45:41.883Z,7.20
2019-03-11T01:48:10.609Z,7.20
2019-03-11T01:50:39.314Z,7.20
2019-03-11T01:53:08.019Z,7.20
2019-03-11T01:55:36.731Z,7.20
2019-03-11T01:58:05.532Z,7.20
2019-03-11T02:00:34.281Z,7.20
2019-03-11T02:03:03.063Z,7.20
2019-03-11T02:05:31.790Z,7.10
2019-03-11T02:08:00.501Z,7.10
2019-03-11T02:10:29.357Z,7.10
2019-03-11T02:12:58.073Z,7.10
2019-03-11T02:15:26.922Z,7.10
2019-03-11T02:17:55.681Z,7.10
2019-03-11T02:20:24.377Z,7.10
2019-03-11T02:22:53.099Z,7.10
2019-03-11T02:25:21.917Z,7.10
2019-03-11T02:27:50.643Z,7.10
2019-03-11T02:30:19.347Z,7.10
2019-03-11T02:32:48.058Z,7.10
2019-03-11T02:35:27.133Z,7.10
2019-03-11T02:37:56.061Z,7.10
2019-03-11T02:40:24.776Z,7.10
2019-03-11T02:42:53.482Z,7.10
2019-03-11T02:45:22.342Z,7.10
2019-03-11T02:47:51.062Z,7.10
2019-03-11T02:50:19.853Z,7.10
2019-03-11T02:52:48.644Z,7.10
2019-03-11T02:55:17.325Z,7.10
2019-03-11T02:57:46.043Z,7.10
2019-03-11T03:00:16.321Z,7.10
2019-03-11T03:03:06.589Z,7.10
2019-03-11T03:05:39.834Z,7.10
2019-03-11T03:08:08.587Z,7.10
2019-03-11T03:10:37.286Z,7.10
2019-03-11T03:13:06.223Z,7.10
2019-03-11T03:15:34.932Z,7.10
2019-03-11T03:18:03.713Z,7.10
2019-03-11T03:20:32.543Z,7.10
2019-03-11T03:23:01.282Z,7.10
2019-03-11T03:25:34.327Z,7.10
2019-03-11T03:28:00.576Z,7.20
2019-03-11T03:30:29.494Z,7.10
2019-03-11T03:32:58.386Z,7.10
2019-03-11T03:35:27.190Z,7.10
2019-03-11T03:37:56.015Z,7.10
2019-03-11T03:40:24.740Z,7.10
2019-03-11T03:42:53.588Z,7.10
2019-03-11T03:45:33.527Z,7.10
2019-03-11T03:48:02.446Z,7.10
2019-03-11T03:50:33.050Z,7.10
2019-03-11T03:53:01.769Z,7.10
2019-03-11T03:55:30.521Z,7.10
2019-03-11T03:57:59.222Z,7.10
2019-03-11T04:00:28.017Z,7.00
2019-03-11T04:02:56.738Z,7.00
2019-03-11T04:05:25.617Z,7.00
2019-03-11T04:07:54.362Z,7.00
2019-03-11T04:10:23.159Z,6.90
2019-03-11T04:12:51.894Z,6.90
2019-03-11T04:15:20.750Z,6.90
2019-03-11T04:17:49.636Z,6.90
2019-03-11T04:20:18.996Z,6.90
2019-03-11T04:22:47.808Z,6.90
2019-03-11T04:25:16.672Z,6.80
2019-03-11T04:27:45.561Z,6.80
2019-03-11T04:30:16.569Z,6.70
2019-03-11T04:32:45.293Z,6.70
2019-03-11T04:35:14.098Z,6.70
2019-03-11T04:37:42.873Z,6.60
2019-03-11T04:40:13.385Z,6.60
2019-03-11T04:42:42.413Z,6.60
2019-03-11T04:45:12.289Z,6.60
2019-03-11T04:47:41.093Z,6.60
2019-03-11T04:50:11.524Z,6.60
2019-03-11T04:52:40.309Z,6.60
2019-03-11T04:55:10.029Z,6.60
2019-03-11T04:57:43.449Z,6.60
2019-03-11T05:00:14.569Z,6.60
2019-03-11T05:02:43.371Z,6.60
2019-03-11T05:05:12.214Z,6.60
2019-03-11T05:07:41.005Z,6.70
2019-03-11T05:10:10.550Z,6.70
2019-03-11T05:12:39.377Z,6.70
2019-03-11T05:15:08.797Z,6.70
2019-03-11T05:17:37.798Z,6.60
2019-03-11T05:20:07.055Z,6.60
2019-03-11T05:22:36.148Z,6.60
2019-03-11T05:25:05.701Z,6.60
2019-03-11T05:27:34.637Z,6.60
2019-03-11T05:30:03.508Z,6.60
2019-03-11T05:32:32.294Z,6.60
2019-03-11T05:35:01.069Z,6.60
2019-03-11T05:37:29.807Z,6.60
2019-03-11T05:39:58.535Z,6.60
2019-03-11T05:42:27.269Z,6.60
2019-03-11T05:44:56.089Z,6.70
2019-03-11T05:47:24.863Z,6.70
2019-03-11T05:49:53.557Z,6.70
2019-03-11T05:52:22.265Z,6.70
2019-03-11T05:54:51.089Z,6.70
2019-03-11T05:57:19.801Z,6.70
2019-03-11T05:59:48.509Z,6.70
2019-03-11T06:02:17.213Z,6.70
2019-03-11T06:04:45.914Z,6.70
2019-03-11T06:07:14.704Z,6.70
2019-03-11T06:09:43.394Z,6.70
2019-03-11T06:12:12.181Z,6.60
2019-03-11T06:14:40.898Z,6.70
2019-03-11T06:17:09.610Z,6.70
2019-03-11T06:19:38.305Z,6.70
2019-03-11T06:22:10.177Z,6.70
2019-03-11T06:24:38.874Z,6.70
2019-03-11T06:27:07.561Z,6.70
2019-03-11T06:29:36.277Z,6.80
2019-03-11T06:32:05.170Z,6.80
2019-03-11T06:34:33.874Z,6.80
2019-03-11T06:37:02.683Z,6.90
2019-03-11T06:39:31.561Z,6.90
2019-03-11T06:42:00.265Z,7.00
2019-03-11T06:44:28.988Z,7.00
2019-03-11T06:46:57.678Z,7.00
2019-03-11T06:49:26.378Z,7.10
2019-03-11T06:51:55.285Z,7.10
2019-03-11T06:54:23.989Z,7.10
2019-03-11T06:56:52.688Z,7.20
2019-03-11T06:59:21.401Z,7.20
2019-03-11T07:01:50.125Z,7.20
2019-03-11T07:04:18.834Z,7.30
2019-03-11T07:06:47.542Z,7.30
2019-03-11T07:09:16.465Z,7.40
2019-03-11T07:11:45.239Z,7.40
2019-03-11T07:14:14.094Z,7.40
2019-03-11T07:16:43.042Z,7.40
2019-03-11T07:19:11.903Z,7.50
2019-03-11T07:21:42.759Z,7.50
2019-03-11T07:24:11.514Z,7.50
2019-03-11T07:26:40.218Z,7.60
2019-03-11T07:29:08.981Z,7.60
2019-03-11T07:31:37.697Z,7.60
2019-03-11T07:34:06.389Z,7.60
2019-03-11T07:36:35.097Z,7.70
2019-03-11T07:39:05.045Z,7.70
2019-03-11T07:41:33.818Z,7.70
2019-03-11T07:44:02.610Z,7.70
2019-03-11T07:46:31.362Z,7.70
2019-03-11T07:49:00.053Z,7.80
2019-03-11T07:51:28.782Z,7.80
2019-03-11T07:53:57.478Z,7.80
2019-03-11T07:56:26.169Z,7.80
2019-03-11T07:58:55.038Z,7.80
2019-03-11T08:01:23.745Z,7.80
2019-03-11T08:03:52.448Z,7.90
2019-03-11T08:06:21.189Z,7.90
2019-03-11T08:08:49.895Z,7.90
2019-03-11T08:11:18.644Z,8.00
2019-03-11T08:13:47.414Z,8.00
2019-03-11T08:16:16.193Z,8.10
2019-03-11T08:18:44.897Z,8.10
2019-03-11T08:21:15.722Z,8.20
2019-03-11T08:23:44.421Z,8.20
2019-03-11T08:26:14.299Z,8.20
2019-03-11T08:28:43.021Z,8.20
2019-03-11T08:31:11.842Z,8.30
2019-03-11T08:33:40.535Z,8.30
2019-03-11T08:36:09.261Z,8.30
2019-03-11T08:38:37.977Z,8.40
2019-03-11T08:41:06.689Z,8.40
2019-03-11T08:43:35.401Z,8.40
2019-03-11T08:46:04.174Z,8.30
2019-03-11T08:48:32.870Z,8.20
2019-03-11T08:51:01.625Z,8.20
2019-03-11T08:53:30.322Z,8.10
2019-03-11T08:55:59.081Z,8.00
2019-03-11T08:58:27.799Z,7.90
2019-03-11T09:00:56.488Z,7.90
2019-03-11T09:03:25.170Z,7.90
2019-03-11T09:05:53.893Z,7.80
2019-03-11T09:08:22.613Z,7.80
2019-03-11T09:10:51.418Z,7.80
2019-03-11T09:13:20.133Z,7.80
2019-03-11T09:15:48.950Z,7.80
2019-03-11T09:18:17.669Z,7.80
2019-03-11T09:20:46.393Z,7.90
2019-03-11T09:23:15.278Z,7.90
2019-03-11T09:25:43.981Z,8.00
2019-03-11T09:28:12.718Z,8.10
2019-03-11T09:30:41.570Z,8.10
2019-03-11T09:33:10.433Z,8.20
2019-03-11T09:35:39.157Z,8.30
2019-03-11T09:38:07.937Z,8.40
2019-03-11T09:40:36.661Z,8.50
2019-03-11T09:43:05.441Z,8.50
2019-03-11T09:45:34.198Z,8.60
2019-03-11T09:48:02.969Z,8.70
2019-03-11T09:50:31.755Z,8.80
2019-03-11T09:53:00.605Z,8.90
2019-03-11T09:55:29.319Z,9.00
2019-03-11T09:57:58.175Z,9.10
2019-03-11T10:00:26.969Z,9.30
2019-03-11T10:02:55.776Z,9.40
2019-03-11T10:05:24.563Z,9.50
2019-03-11T10:07:53.427Z,9.60
2019-03-11T10:10:24.171Z,9.60
2019-03-11T10:12:52.995Z,9.70
2019-03-11T10:15:21.841Z,9.70
2019-03-11T10:17:50.730Z,9.60
2019-03-11T10:20:19.889Z,9.60
2019-03-11T10:22:48.778Z,9.50
2019-03-11T10:25:17.579Z,9.40
2019-03-11T10:27:46.485Z,9.30
2019-03-11T10:30:16.126Z,9.20
2019-03-11T10:32:44.858Z,9.20
2019-03-11T10:35:30.950Z,9.10
2019-03-11T10:37:45.533Z,9.10
2019-03-11T10:40:16.343Z,9.10
2019-03-11T10:42:45.133Z,9.10
2019-03-11T10:45:14.117Z,9.10
2019-03-11T10:47:42.894Z,9.10
2019-03-11T10:50:14.885Z,9.10
2019-03-11T10:52:43.673Z,9.20
2019-03-11T10:55:16.281Z,9.20
2019-03-11T10:57:45.068Z,9.30
2019-03-11T11:00:16.594Z,9.30
2019-03-11T11:02:45.466Z,9.40
2019-03-11T11:05:15.738Z,9.50
2019-03-11T11:07:44.501Z,9.50
2019-03-11T11:10:13.557Z,9.60
2019-03-11T11:12:42.409Z,9.60
2019-03-11T11:15:14.089Z,9.70
2019-03-11T11:17:42.807Z,9.80
2019-03-11T11:20:12.106Z,9.90
2019-03-11T11:22:40.822Z,9.90
2019-03-11T11:25:11.423Z,9.90
2019-03-11T11:27:40.126Z,10.00
2019-03-11T11:30:14.548Z,10.00
2019-03-11T11:32:43.245Z,10.10
2019-03-11T11:35:12.200Z,10.10
2019-03-11T11:37:40.942Z,10.20
2019-03-11T11:40:12.538Z,10.20
2019-03-11T11:42:41.252Z,10.20
2019-03-11T11:45:11.648Z,10.30
2019-03-11T11:47:40.350Z,10.30
2019-03-11T11:50:11.261Z,10.30
2019-03-11T11:52:59.225Z,10.30
2019-03-11T11:55:57.331Z,10.30
2019-03-11T11:58:17.634Z,10.40
2019-03-11T12:00:47.817Z,10.40
2019-03-11T12:03:16.534Z,10.40
2019-03-11T12:05:45.255Z,10.40
2019-03-11T12:08:14.027Z,10.40
2019-03-11T12:10:42.793Z,10.50
2019-03-11T12:13:12.745Z,10.50
2019-03-11T12:15:41.400Z,10.50
2019-03-11T12:18:10.198Z,10.60
2019-03-11T12:20:38.906Z,10.60
2019-03-11T12:23:07.701Z,10.70
2019-03-11T12:25:36.510Z,10.70
2019-03-11T12:28:05.555Z,10.80
2019-03-11T12:30:34.418Z,10.90
2019-03-11T12:33:03.380Z,10.90
2019-03-11T12:35:32.099Z,11.00
2019-03-11T12:38:00.874Z,11.00
2019-03-11T12:40:29.650Z,11.10
2019-03-11T12:42:58.358Z,11.10
2019-03-11T12:45:27.459Z,11.10
2019-03-11T12:47:56.211Z,11.00
2019-03-11T12:50:25.022Z,11.00
2019-03-11T12:52:54.574Z,11.00
2019-03-11T12:55:23.366Z,10.90
2019-03-11T12:57:52.236Z,11.00
2019-03-11T13:00:21.112Z,10.90
2019-03-11T13:02:49.971Z,10.90
2019-03-11T13:05:18.848Z,10.90
2019-03-11T13:07:48.001Z,10.90
2019-03-11T13:10:18.057Z,11.00
2019-03-11T13:12:47.048Z,11.00
2019-03-11T13:15:16.271Z,11.00
2019-03-11T13:17:45.130Z,11.10
2019-03-11T13:20:26.386Z,11.10
2019-03-11T13:22:55.246Z,11.20
2019-03-11T13:25:24.094Z,11.20
2019-03-11T13:27:52.909Z,11.20
2019-03-11T13:30:22.093Z,11.30
2019-03-11T13:32:53.071Z,11.30
2019-03-11T13:35:22.269Z,11.30
2019-03-11T13:37:51.041Z,11.30
2019-03-11T13:40:20.475Z,11.30
2019-03-11T13:42:49.209Z,11.30
2019-03-11T13:45:18.622Z,11.40
2019-03-11T13:47:47.637Z,11.40
2019-03-11T13:50:16.508Z,11.40
2019-03-11T13:52:45.477Z,11.40
2019-03-11T13:55:17.145Z,11.40
2019-03-11T13:57:46.087Z,11.40
2019-03-11T14:00:15.873Z,11.30
2019-03-11T14:02:44.605Z,11.30
2019-03-11T14:05:13.663Z,11.30
2019-03-11T14:07:42.374Z,11.30
2019-03-11T14:10:11.240Z,11.30
2019-03-11T14:12:40.115Z,11.30
2019-03-11T14:15:09.386Z,11.20
2019-03-11T14:17:38.321Z,11.30
2019-03-11T14:20:07.398Z,11.30
2019-03-11T14:22:36.134Z,11.20
2019-03-11T14:25:05.176Z,11.30
2019-03-11T14:27:34.254Z,11.20
2019-03-11T14:30:03.117Z,11.20
2019-03-11T14:32:36.234Z,11.20
2019-03-11T14:35:05.327Z,11.10
2019-03-11T14:37:34.058Z,11.10
2019-03-11T14:40:02.852Z,11.00
2019-03-11T14:42:31.621Z,11.00
2019-03-11T14:45:00.515Z,11.00
2019-03-11T14:47:29.342Z,11.00
2019-03-11T14:49:58.159Z,10.90
2019-03-11T14:52:26.922Z,10.90
2019-03-11T14:54:55.619Z,10.90
2019-03-11T14:57:24.346Z,10.90
2019-03-11T14:59:53.114Z,10.90
2019-03-11T15:02:21.830Z,10.90
2019-03-11T15:04:51.319Z,10.80
2019-03-11T15:07:21.014Z,10.90
2019-03-11T15:09:51.607Z,10.80
2019-03-11T15:12:20.298Z,10.90
2019-03-11T15:14:49.015Z,10.90
2019-03-11T15:17:17.737Z,10.90
2019-03-11T15:19:46.464Z,10.90
2019-03-11T15:22:15.374Z,10.90
2019-03-11T15:24:44.149Z,10.90
2019-03-11T15:27:12.982Z,11.00
2019-03-11T15:29:41.709Z,11.00
2019-03-11T15:32:10.498Z,11.10
2019-03-11T15:34:39.371Z,11.20
2019-03-11T15:37:08.134Z,11.20
2019-03-11T15:39:36.865Z,11.20
2019-03-11T15:42:05.615Z,11.20
2019-03-11T15:44:34.305Z,11.20
2019-03-11T15:47:03.014Z,11.30
2019-03-11T15:49:31.741Z,11.30
2019-03-11T15:52:00.437Z,11.30
2019-03-11T15:54:29.281Z,11.30
2019-03-11T15:56:58.161Z,11.30
2019-03-11T15:59:26.908Z,11.30
2019-03-11T16:01:55.656Z,11.30
2019-03-11T16:04:24.366Z,11.30
2019-03-11T16:06:53.134Z,11.20
2019-03-11T16:09:21.879Z,11.20
2019-03-11T16:11:50.598Z,11.20
2019-03-11T16:14:19.401Z,11.10
2019-03-11T16:16:48.229Z,11.10
2019-03-11T16:19:16.967Z,11.10
2019-03-11T16:21:45.814Z,11.10
2019-03-11T16:24:14.637Z,11.00
2019-03-11T16:26:43.378Z,11.00
2019-03-11T16:29:12.310Z,10.90
2019-03-11T16:31:41.019Z,10.90
2019-03-11T16:34:10.848Z,10.90
2019-03-11T16:36:39.554Z,10.90
2019-03-11T16:39:09.038Z,10.80
2019-03-11T16:41:37.972Z,10.80
2019-03-11T16:44:06.677Z,10.80
2019-03-11T16:46:35.494Z,10.80
2019-03-11T16:49:04.314Z,10.80
2019-03-11T16:51:33.029Z,10.70
2019-03-11T16:54:01.847Z,10.70
2019-03-11T16:56:30.599Z,10.70
2019-03-11T16:58:59.309Z,10.70
2019-03-11T17:01:28.031Z,10.70
2019-03-11T17:03:56.770Z,10.70
2019-03-11T17:06:25.517Z,10.70
2019-03-11T17:08:54.349Z,10.60
2019-03-11T17:11:23.233Z,10.60
2019-03-11T17:13:52.009Z,10.60
2019-03-11T17:16:20.729Z,10.60
2019-03-11T17:18:49.728Z,10.50
2019-03-11T17:21:18.450Z,10.50
2019-03-11T17:23:47.317Z,10.50
2019-03-11T17:26:16.178Z,10.50
2019-03-11T17:28:44.893Z,10.50
2019-03-11T17:31:13.728Z,10.40
2019-03-11T17:33:42.594Z,10.50
2019-03-11T17:36:12.394Z,10.50
2019-03-11T17:38:41.630Z,10.40
2019-03-11T17:41:10.537Z,10.40
2019-03-11T17:43:39.407Z,10.40
2019-03-11T17:46:08.306Z,10.40
2019-03-11T17:48:37.030Z,10.40
2019-03-11T17:51:05.834Z,10.40
2019-03-11T17:53:34.656Z,10.30
2019-03-11T17:56:03.463Z,10.30
2019-03-11T17:58:32.233Z,10.30
2019-03-11T18:01:01.140Z,10.30
2019-03-11T18:03:29.960Z,10.30
2019-03-11T18:05:58.646Z,10.30
2019-03-11T18:08:27.586Z,10.20
2019-03-11T18:10:56.393Z,10.30
2019-03-11T18:13:25.111Z,10.20
2019-03-11T18:15:53.901Z,10.20
2019-03-11T18:18:32.717Z,10.20
2019-03-11T18:20:53.178Z,10.10
2019-03-11T18:23:22.022Z,10.10
2019-03-11T18:25:50.742Z,10.00
2019-03-11T18:28:20.568Z,10.00
2019-03-11T18:31:08.878Z,10.00
2019-03-11T18:33:37.888Z,9.90
2019-03-11T18:36:07.847Z,9.90
2019-03-11T18:38:36.741Z,9.90
2019-03-11T18:41:05.523Z,9.80
2019-03-11T18:43:42.775Z,9.80
2019-03-11T18:46:04.883Z,9.80
2019-03-11T18:48:33.672Z,9.80
2019-03-11T18:51:10.756Z,9.70
2019-03-11T18:53:33.105Z,9.70
2019-03-11T18:56:01.894Z,9.70
2019-03-11T18:58:30.602Z,9.70
2019-03-11T19:00:59.323Z,9.60
2019-03-11T19:03:28.126Z,9.60
2019-03-11T19:05:56.973Z,9.60
2019-03-11T19:08:28.449Z,9.60
2019-03-11T19:10:57.219Z,9.60
2019-03-11T19:13:26.048Z,9.50
2019-03-11T19:15:54.903Z,9.50
2019-03-11T19:18:23.666Z,9.50
2019-03-11T19:20:52.396Z,9.40
2019-03-11T19:23:21.190Z,9.40
2019-03-11T19:25:49.928Z,9.40
2019-03-11T19:28:18.864Z,9.40
2019-03-11T19:30:47.802Z,9.30
2019-03-11T19:33:16.568Z,9.30
2019-03-11T19:35:45.371Z,9.30
2019-03-11T19:38:15.495Z,9.20
2019-03-11T19:40:44.203Z,9.20
2019-03-11T19:43:13.153Z,9.20
2019-03-11T19:45:41.951Z,9.20
2019-03-11T19:48:26.595Z,9.10
2019-03-11T19:50:55.376Z,9.10
2019-03-11T19:53:24.279Z,9.10
2019-03-11T19:55:53.111Z,9.00
2019-03-11T19:58:21.867Z,9.00
2019-03-11T20:00:50.756Z,9.00
2019-03-11T20:03:26.836Z,8.90
2019-03-11T20:05:50.150Z,8.90
2019-03-11T20:08:21.565Z,8.90
2019-03-11T20:10:50.488Z,8.90
2019-03-11T20:13:19.392Z,8.80
2019-03-11T20:15:48.304Z,8.80
2019-03-11T20:18:17.259Z,8.80
2019-03-11T20:20:46.173Z,8.70
2019-03-11T20:23:17.635Z,8.70
2019-03-11T20:25:46.385Z,8.70
2019-03-11T20:28:15.316Z,8.60
2019-03-11T20:30:45.524Z,8.60
2019-03-11T20:33:14.753Z,8.60
2019-03-11T20:35:43.563Z,8.50
2019-03-11T20:38:12.507Z,8.50
2019-03-11T20:40:41.436Z,8.50
2019-03-11T20:43:10.315Z,8.50
2019-03-11T20:45:41.205Z,8.40
2019-03-11T20:48:09.978Z,8.40
2019-03-11T20:50:42.372Z,8.40
2019-03-11T20:53:09.571Z,8.30
2019-03-11T20:55:40.447Z,8.30
2019-03-11T20:58:11.557Z,8.30
2019-03-11T21:00:40.485Z,8.30
2019-03-11T21:03:09.499Z,8.30
2019-03-11T21:05:38.409Z,8.20
2019-03-11T21:08:07.273Z,8.20
2019-03-11T21:10:36.171Z,8.20
2019-03-11T21:13:11.495Z,8.20
2019-03-11T21:15:45.603Z,8.10
2019-03-11T21:18:14.597Z,8.10
2019-03-11T21:20:43.468Z,8.10
2019-03-11T21:23:12.615Z,8.10
2019-03-11T21:25:41.418Z,8.00
2019-03-11T21:28:15.802Z,8.00
2019-03-11T21:30:44.581Z,8.00
2019-03-11T21:33:13.580Z,8.00
2019-03-11T21:35:42.785Z,7.90
2019-03-11T21:38:11.584Z,7.90
2019-03-11T21:40:40.409Z,7.90
2019-03-11T21:43:09.191Z,7.90
2019-03-11T21:45:38.014Z,7.90
2019-03-11T21:48:09.525Z,7.90
2019-03-11T21:50:38.401Z,7.90
2019-03-11T21:53:07.146Z,7.80
2019-03-11T21:55:36.157Z,7.80
2019-03-11T21:58:13.269Z,7.80
2019-03-11T22:00:37.060Z,7.80
2019-03-11T22:03:05.922Z,7.80
2019-03-11T22:05:34.625Z,7.80
2019-03-11T22:08:03.329Z,7.80
2019-03-11T22:10:32.186Z,7.80
2019-03-11T22:13:01.297Z,7.80
2019-03-11T22:15:32.184Z,7.80
2019-03-11T22:18:00.904Z,7.80
2019-03-11T22:20:29.852Z,7.80
2019-03-11T22:22:58.693Z,7.70
2019-03-11T22:25:27.519Z,7.70
2019-03-11T22:27:56.241Z,7.70
2019-03-11T22:30:25.750Z,7.70
2019-03-11T22:32:57.075Z,7.60
2019-03-11T22:35:28.935Z,7.60
2019-03-11T22:37:57.975Z,7.60
2019-03-11T22:40:26.703Z,7.60
2019-03-11T22:42:55.497Z,7.50
2019-03-11T22:45:24.429Z,7.50
2019-03-11T22:47:53.410Z,7.50
2019-03-11T22:50:25.309Z,7.50
2019-03-11T22:52:55.365Z,7.40
2019-03-11T22:55:26.414Z,7.40
2019-03-11T22:57:55.279Z,7.40
2019-03-11T23:00:41.475Z,7.40
2019-03-11T23:03:10.570Z,7.40
2019-03-11T23:05:39.357Z,7.30
2019-03-11T23:08:08.180Z,7.30
2019-03-11T23:10:36.921Z,7.30
2019-03-11T23:13:05.998Z,7.30
2019-03-11T23:15:34.761Z,7.30
2019-03-11T23:18:03.456Z,7.30
2019-03-11T23:20:32.258Z,7.30
2019-03-11T23:23:03.993Z,7.20
2019-03-11T23:25:32.890Z,7.20
2019-03-11T23:28:01.585Z,7.20
2019-03-11T23:30:30.373Z,7.20
2019-03-11T23:32:59.081Z,7.20
2019-03-11T23:35:27.778Z,7.10
2019-03-11T23:37:56.787Z,7.10
2019-03-11T23:40:25.503Z,7.10
2019-03-11T23:42:56.619Z,7.10
2019-03-11T23:45:25.382Z,7.10
2019-03-11T23:47:54.107Z,7.00
2019-03-11T23:50:22.842Z,7.00
2019-03-11T23:52:51.541Z,7.00
2019-03-11T23:55:20.241Z,7.00
2019-03-11T23:57:48.941Z,7.00
